Time;durP1;ratioP1;P1;durP2;ratioP2;P2;SDS_P1;SDS_P2;PMS_P1;PMS_P2;Temp;Humidity;BMP_temperature;BMP_pressure;BME280_temperature;BME280_humidity;BME280_pressure;Samples;Min_cycle;Max_cycle;Signal;HPM_P1;HPM_P2
2022/10/17 00:01:02;;;;;;;7.85;4.75;;;17.50;99.90;;;;;;5032654;28;20095;-62
2022/10/17 00:03:28;;;;;;;6.20;4.63;;;17.40;99.90;;;;;;5032700;28;20033;-63
2022/10/17 00:05:53;;;;;;;5.93;4.90;;;17.40;99.90;;;;;;5032462;28;20032;-63
2022/10/17 00:08:19;;;;;;;7.03;4.60;;;17.40;99.90;;;;;;5031117;28;20084;-60
2022/10/17 00:10:54;;;;;;;8.23;5.05;;;17.40;99.90;;;;;;5032596;28;20471;-61
2022/10/17 00:13:19;;;;;;;5.00;4.60;;;17.40;99.90;;;;;;5032452;28;20025;-62
2022/10/17 00:15:45;;;;;;;6.75;4.55;;;17.40;99.90;;;;;;5032532;28;20029;-62
2022/10/17 00:18:10;;;;;;;6.53;5.35;;;17.40;99.90;;;;;;5032637;28;20045;-61
2022/10/17 00:20:36;;;;;;;6.03;5.13;;;17.40;99.90;;;;;;5032561;28;20065;-60
2022/10/17 00:23:01;;;;;;;4.95;4.32;;;17.40;99.90;;;;;;5032025;28;20433;-62
2022/10/17 00:25:27;;;;;;;9.90;5.05;;;17.40;99.90;;;;;;5032408;28;20405;-62
2022/10/17 00:27:53;;;;;;;5.80;5.20;;;17.40;99.90;;;;;;5032310;28;20029;-66
2022/10/17 00:30:18;;;;;;;5.82;4.80;;;17.30;99.90;;;;;;5032349;28;20030;-65
2022/10/17 00:32:44;;;;;;;6.88;5.10;;;17.40;99.90;;;;;;5032356;28;20030;-65
2022/10/17 00:35:10;;;;;;;7.35;5.50;;;17.30;99.90;;;;;;5032479;28;20475;-65
2022/10/17 00:37:35;;;;;;;6.78;5.35;;;17.40;99.90;;;;;;5033468;28;20374;-66
2022/10/17 00:40:02;;;;;;;6.43;5.53;;;17.30;99.90;;;;;;5036042;28;20025;-65
2022/10/17 00:42:27;;;;;;;9.77;5.25;;;17.30;99.90;;;;;;5035872;28;20095;-66
2022/10/17 00:45:11;;;;;;;5.45;4.95;;;17.30;99.90;;;;;;5034699;28;20486;-66
2022/10/17 00:47:37;;;;;;;6.40;5.70;;;17.30;99.90;;;;;;5036063;28;20021;-64
2022/10/17 00:50:05;;;;;;;6.88;5.50;;;17.40;99.90;;;;;;5035824;28;20140;-65
2022/10/17 00:52:31;;;;;;;5.93;5.32;;;17.30;99.90;;;;;;5034206;28;20076;-65
2022/10/17 00:55:07;;;;;;;7.00;5.88;;;17.30;99.90;;;;;;5035556;28;20021;-66
2022/10/17 00:57:33;;;;;;;5.88;5.28;;;17.30;99.90;;;;;;5035649;28;20025;-65
2022/10/17 01:00:05;;;;;;;7.22;6.07;;;17.30;99.90;;;;;;5035246;28;20048;-65
2022/10/17 01:02:31;;;;;;;7.65;5.20;;;17.30;99.90;;;;;;5035630;28;20018;-65
2022/10/17 01:04:58;;;;;;;8.13;5.93;;;17.30;99.90;;;;;;5035370;28;20040;-65
2022/10/17 01:07:24;;;;;;;6.43;5.53;;;17.30;99.90;;;;;;5035053;28;20143;-65
2022/10/17 01:09:50;;;;;;;6.00;5.38;;;17.30;99.90;;;;;;5035297;28;20471;-65
2022/10/17 01:12:27;;;;;;;6.20;5.47;;;17.30;99.90;;;;;;5035515;28;20037;-62
2022/10/17 01:15:37;;;;;;;6.18;5.57;;;17.30;99.90;;;;;;5035296;28;20025;-64
2022/10/17 01:18:19;;;;;;;6.65;5.65;;;17.30;99.90;;;;;;4993672;28;20026;-64
2022/10/17 01:20:53;;;;;;;9.35;5.88;;;17.20;99.90;;;;;;4993305;28;20038;-64
2022/10/17 01:23:34;;;;;;;6.05;5.43;;;17.30;99.90;;;;;;5021681;28;20099;-65
2022/10/17 01:26:41;;;;;;;8.02;5.70;;;17.30;99.90;;;;;;5035169;28;20025;-65
2022/10/17 01:29:31;;;;;;;8.20;5.47;;;17.30;99.90;;;;;;5020815;28;20462;-63
2022/10/17 01:32:24;;;;;;;7.63;6.00;;;17.20;99.90;;;;;;5035022;28;20022;-65
2022/10/17 01:34:58;;;;;;;8.20;5.45;;;17.20;99.90;;;;;;5034863;28;20029;-65
2022/10/17 01:37:27;;;;;;;8.40;5.80;;;17.20;99.90;;;;;;5035026;28;20057;-65
2022/10/17 01:40:16;;;;;;;6.57;5.60;;;17.20;99.90;;;;;;5034726;28;20030;-65
2022/10/17 01:42:45;;;;;;;6.72;5.90;;;17.20;99.90;;;;;;5034780;28;20466;-65
2022/10/17 01:45:18;;;;;;;7.45;5.35;;;17.20;99.90;;;;;;5034643;28;20143;-64
2022/10/17 01:47:46;;;;;;;6.65;5.57;;;17.20;99.90;;;;;;5033426;28;20036;-64
2022/10/17 01:50:20;;;;;;;6.40;5.70;;;17.20;99.90;;;;;;5034750;28;20026;-64
2022/10/17 01:52:55;;;;;;;6.35;5.70;;;17.20;99.90;;;;;;5034686;28;20033;-66
2022/10/17 01:55:32;;;;;;;6.13;5.53;;;17.20;99.90;;;;;;5034543;28;20382;-65
2022/10/17 01:58:08;;;;;;;7.40;6.30;;;17.20;99.90;;;;;;5034449;28;20041;-65
2022/10/17 02:00:36;;;;;;;6.85;5.82;;;17.20;99.90;;;;;;5034372;28;20041;-66
2022/10/17 02:03:06;;;;;;;7.65;5.55;;;17.20;99.90;;;;;;5034345;28;20487;-65
2022/10/17 02:05:37;;;;;;;8.90;6.05;;;17.20;99.90;;;;;;5034170;28;20026;-64
2022/10/17 02:08:03;;;;;;;6.10;5.50;;;17.20;99.90;;;;;;5034338;28;20033;-64
2022/10/17 02:11:06;;;;;;;9.50;5.85;;;17.20;99.90;;;;;;5034394;28;20025;-63
2022/10/17 02:14:07;;;;;;;8.52;5.75;;;17.20;99.90;;;;;;5034002;28;20505;-66
2022/10/17 02:16:44;;;;;;;9.25;6.22;;;17.20;99.90;;;;;;5032961;28;20045;-65
2022/10/17 02:19:28;;;;;;;8.95;6.28;;;17.10;99.90;;;;;;5033910;28;20179;-64
2022/10/17 02:22:02;;;;;;;11.07;5.55;;;17.20;99.90;;;;;;5034068;28;20044;-66
2022/10/17 02:24:44;;;;;;;8.30;5.13;;;17.10;99.90;;;;;;5034050;28;20079;-64
2022/10/17 02:27:19;;;;;;;6.15;5.30;;;17.10;99.90;;;;;;5034102;28;20025;-65
2022/10/17 02:29:55;;;;;;;7.13;5.72;;;17.20;99.90;;;;;;5033784;28;20267;-65
2022/10/17 02:32:27;;;;;;;6.47;5.85;;;17.10;99.90;;;;;;5033968;28;20101;-65
2022/10/17 02:34:54;;;;;;;;;;;17.10;99.90;;;;;;5033775;28;20040;-65
2022/10/17 02:37:23;;;;;;;6.93;5.50;;;17.10;99.90;;;;;;5033903;28;19913;-65
2022/10/17 02:39:50;;;;;;;8.35;6.45;;;17.10;99.90;;;;;;5033638;28;20081;-65
2022/10/17 02:42:16;;;;;;;8.13;6.28;;;17.10;99.90;;;;;;5033810;28;20033;-66
2022/10/17 02:44:44;;;;;;;6.38;5.68;;;17.10;99.90;;;;;;5032380;28;20033;-65
2022/10/17 02:47:47;;;;;;;9.15;6.03;;;17.10;99.90;;;;;;5033412;28;20032;-65
2022/10/17 02:50:13;;;;;;;6.40;5.72;;;17.10;99.90;;;;;;5031194;28;20034;-66
2022/10/17 02:52:47;;;;;;;6.47;5.82;;;17.10;99.90;;;;;;5033527;28;20032;-66
2022/10/17 02:55:34;;;;;;;7.70;6.63;;;17.10;99.90;;;;;;5033505;28;20100;-67
2022/10/17 02:58:09;;;;;;;6.45;5.75;;;17.10;99.90;;;;;;5033336;28;20018;-65
2022/10/17 03:00:36;;;;;;;7.30;6.13;;;17.10;99.90;;;;;;5032521;28;20034;-65
2022/10/17 03:03:18;;;;;;;6.47;5.32;;;17.10;99.90;;;;;;5033058;28;20387;-65
2022/10/17 03:05:44;;;;;;;6.30;5.68;;;17.10;99.90;;;;;;5033167;28;20022;-64
2022/10/17 03:08:10;;;;;;;8.68;6.45;;;17.10;99.90;;;;;;5033376;28;20022;-62
2022/10/17 03:10:36;;;;;;;8.07;6.00;;;17.10;99.90;;;;;;5033161;28;20010;-65
2022/10/17 03:13:01;;;;;;;9.43;5.90;;;17.10;99.90;;;;;;5033208;28;20033;-64
2022/10/17 03:15:27;;;;;;;7.60;5.40;;;17.10;99.90;;;;;;5033262;28;20071;-65
2022/10/17 03:17:54;;;;;;;11.02;6.45;;;17.10;99.90;;;;;;5032669;28;20254;-64
2022/10/17 03:20:20;;;;;;;7.57;5.97;;;17.10;99.90;;;;;;5031954;28;20113;-65
2022/10/17 03:22:45;;;;;;;9.52;6.00;;;17.10;99.90;;;;;;5032889;28;20033;-63
2022/10/17 03:25:11;;;;;;;6.75;5.40;;;17.10;99.90;;;;;;5033079;28;20029;-63
2022/10/17 03:27:36;;;;;;;7.05;6.10;;;17.10;99.90;;;;;;5032942;28;20096;-62
2022/10/17 03:30:02;;;;;;;7.22;6.05;;;17.10;99.90;;;;;;5033053;28;20080;-64
2022/10/17 03:32:28;;;;;;;6.90;5.63;;;17.10;99.90;;;;;;5032793;28;20487;-61
2022/10/17 03:34:53;;;;;;;8.80;5.72;;;17.20;99.90;;;;;;5032940;28;20068;-62
2022/10/17 03:37:19;;;;;;;7.97;6.30;;;17.10;99.90;;;;;;5032934;28;20021;-64
2022/10/17 03:39:44;;;;;;;8.20;6.05;;;17.10;99.90;;;;;;5032747;28;20021;-63
2022/10/17 03:42:10;;;;;;;7.38;5.20;;;17.10;99.90;;;;;;5032752;28;20037;-63
2022/10/17 03:44:35;;;;;;;8.95;5.10;;;17.10;99.90;;;;;;5033046;28;20021;-62
2022/10/17 03:47:01;;;;;;;7.07;6.10;;;17.10;99.90;;;;;;5032382;28;20505;-61
2022/10/17 03:49:26;;;;;;;5.82;4.82;;;17.20;99.90;;;;;;5032787;28;20034;-61
2022/10/17 03:51:52;;;;;;;7.85;5.85;;;17.20;99.90;;;;;;5032658;28;20036;-65
2022/10/17 03:54:17;;;;;;;10.43;5.65;;;17.20;99.90;;;;;;5026075;28;20029;-66
2022/10/17 03:56:43;;;;;;;7.95;5.63;;;17.20;99.90;;;;;;5011981;28;20022;-65
2022/10/17 03:59:13;;;;;;;5.82;4.88;;;17.20;99.90;;;;;;5012474;28;20026;-65
2022/10/17 04:01:39;;;;;;;7.85;5.38;;;17.20;99.90;;;;;;5012522;28;20041;-65
2022/10/17 04:04:05;;;;;;;8.20;5.97;;;17.20;99.90;;;;;;5013169;28;20033;-65
2022/10/17 04:06:31;;;;;;;6.13;5.50;;;17.20;99.90;;;;;;5013468;28;20424;-64
2022/10/17 04:08:56;;;;;;;7.28;4.78;;;17.20;99.90;;;;;;5012548;28;20026;-62
2022/10/17 04:11:22;;;;;;;7.57;5.82;;;17.20;99.90;;;;;;5013735;28;20037;-64
2022/10/17 04:13:53;;;;;;;9.13;5.40;;;17.20;99.90;;;;;;5016635;28;20093;-66
2022/10/17 04:16:18;;;;;;;6.93;6.25;;;17.30;99.90;;;;;;5016671;28;20052;-65
2022/10/17 04:18:44;;;;;;;7.35;5.57;;;17.20;99.90;;;;;;5016565;28;20440;-65
2022/10/17 04:21:11;;;;;;;8.13;5.40;;;17.30;99.90;;;;;;5016164;28;20034;-65
2022/10/17 04:23:37;;;;;;;9.52;5.82;;;17.20;99.90;;;;;;5016585;28;20057;-65
2022/10/17 04:26:03;;;;;;;10.32;5.93;;;17.30;99.90;;;;;;5016417;28;20487;-65
2022/10/17 04:28:29;;;;;;;5.95;5.38;;;17.30;99.90;;;;;;5016434;28;20018;-66
2022/10/17 04:31:06;;;;;;;8.63;6.03;;;17.30;99.90;;;;;;5016023;28;20029;-64
2022/10/17 04:33:33;;;;;;;6.25;5.55;;;17.30;99.90;;;;;;5016466;28;20030;-65
2022/10/17 04:36:00;;;;;;;8.80;5.85;;;17.30;99.90;;;;;;5016261;28;20033;-65
2022/10/17 04:38:27;;;;;;;6.30;4.90;;;17.30;99.90;;;;;;5016593;28;20480;-62
2022/10/17 04:40:53;;;;;;;8.25;5.47;;;17.30;99.90;;;;;;5027521;28;20060;-67
2022/10/17 04:43:18;;;;;;;6.60;5.55;;;17.30;99.90;;;;;;5036182;28;20029;-65
2022/10/17 04:45:44;;;;;;;7.03;5.18;;;17.30;99.90;;;;;;5045959;28;20025;-65
2022/10/17 04:48:10;;;;;;;8.80;5.03;;;17.30;99.90;;;;;;5038083;28;20040;-66
2022/10/17 04:50:35;;;;;;;9.52;5.25;;;17.30;99.90;;;;;;5045985;28;20032;-65
2022/10/17 04:53:01;;;;;;;6.10;4.60;;;17.30;99.90;;;;;;5042329;28;20029;-65
2022/10/17 04:55:26;;;;;;;6.07;5.47;;;17.30;99.90;;;;;;5039590;28;20018;-65
2022/10/17 04:57:52;;;;;;;7.05;5.28;;;17.30;99.90;;;;;;5028430;28;20025;-66
2022/10/17 05:00:17;;;;;;;4.13;3.70;;;17.30;99.90;;;;;;5031780;28;20084;-64
2022/10/17 05:02:43;;;;;;;5.65;4.60;;;17.40;99.90;;;;;;5031338;28;20073;-60
2022/10/17 05:05:08;;;;;;;7.43;4.72;;;17.30;99.90;;;;;;5027040;28;20076;-66
2022/10/17 05:07:34;;;;;;;5.88;5.25;;;17.30;99.90;;;;;;5030920;28;20092;-61
2022/10/17 05:10:00;;;;;;;6.10;5.50;;;17.40;99.90;;;;;;5034742;28;20017;-64
2022/10/17 05:12:25;;;;;;;14.25;6.22;;;17.40;99.90;;;;;;5025670;28;20034;-65
2022/10/17 05:14:51;;;;;;;9.93;5.88;;;17.40;99.90;;;;;;5032770;28;20045;-63
2022/10/17 05:17:16;;;;;;;13.02;6.43;;;17.40;99.90;;;;;;5044464;28;20031;-66
2022/10/17 05:19:42;;;;;;;6.97;6.00;;;17.40;99.90;;;;;;5046796;28;20032;-63
2022/10/17 05:22:08;;;;;;;8.77;6.45;;;17.40;99.90;;;;;;5035066;28;20124;-62
2022/10/17 05:24:33;;;;;;;9.88;6.10;;;17.40;99.90;;;;;;5034234;28;20024;-62
2022/10/17 05:26:59;;;;;;;8.60;5.60;;;17.50;99.90;;;;;;5037803;28;20462;-63
2022/10/17 05:29:24;;;;;;;6.00;5.28;;;17.50;99.90;;;;;;5035546;28;20022;-65
2022/10/17 05:31:50;;;;;;;6.18;5.05;;;17.50;99.90;;;;;;5037913;28;20050;-65
2022/10/17 05:34:16;;;;;;;6.07;4.65;;;17.50;99.90;;;;;;5039543;28;20026;-65
2022/10/17 05:36:41;;;;;;;8.70;5.80;;;17.50;99.90;;;;;;5032813;28;20029;-64
2022/10/17 05:39:07;;;;;;;6.90;5.00;;;17.50;99.90;;;;;;5033547;28;21808;-64
2022/10/17 05:41:33;;;;;;;7.45;5.38;;;17.50;99.90;;;;;;5028243;28;20045;-64
2022/10/17 05:43:59;;;;;;;9.32;5.40;;;17.50;99.90;;;;;;5034853;28;20035;-61
2022/10/17 05:46:24;;;;;;;6.60;5.38;;;17.50;99.90;;;;;;5037389;28;20490;-66
2022/10/17 05:48:50;;;;;;;7.80;5.72;;;17.50;99.90;;;;;;5032993;28;20493;-64
2022/10/17 05:51:15;;;;;;;9.05;5.18;;;17.50;99.90;;;;;;5038565;28;20033;-62
2022/10/17 05:53:41;;;;;;;6.47;5.15;;;17.60;99.90;;;;;;5029147;28;20033;-60
2022/10/17 05:56:10;;;;;;;8.38;5.07;;;17.50;99.90;;;;;;5037592;28;20072;-61
2022/10/17 05:58:39;;;;;;;3.80;3.40;;;17.50;99.90;;;;;;5032465;28;20022;-60
2022/10/17 06:01:05;;;;;;;4.75;3.67;;;17.60;99.90;;;;;;5033598;28;20398;-64
2022/10/17 06:03:32;;;;;;;7.05;4.97;;;17.60;99.90;;;;;;5032755;28;20037;-64
2022/10/17 06:06:06;;;;;;;6.32;5.22;;;17.60;99.90;;;;;;5041326;28;20037;-60
2022/10/17 06:08:32;;;;;;;7.00;5.13;;;17.60;99.90;;;;;;5030960;28;20053;-61
2022/10/17 06:10:57;;;;;;;7.38;4.85;;;17.60;99.90;;;;;;5017023;28;20056;-64
2022/10/17 06:13:23;;;;;;;4.55;4.20;;;17.60;99.90;;;;;;5035791;28;20079;-61
2022/10/17 06:15:48;;;;;;;8.73;4.07;;;17.60;99.90;;;;;;5036017;28;20104;-62
2022/10/17 06:18:14;;;;;;;9.63;4.80;;;17.60;99.90;;;;;;5051775;28;20490;-62
2022/10/17 06:20:39;;;;;;;10.50;5.15;;;17.60;99.90;;;;;;5043314;28;20156;-62
2022/10/17 06:23:05;;;;;;;6.47;4.60;;;17.60;99.90;;;;;;5032575;28;20029;-64
2022/10/17 06:25:32;;;;;;;7.32;4.72;;;17.60;99.90;;;;;;5032830;28;20487;-64
2022/10/17 06:27:58;;;;;;;7.00;4.85;;;17.60;99.90;;;;;;5033779;28;20051;-64
2022/10/17 06:30:24;;;;;;;6.65;4.35;;;17.70;99.90;;;;;;5047748;28;20510;-64
2022/10/17 06:32:51;;;;;;;8.77;4.68;;;17.70;99.90;;;;;;5033298;28;20028;-62
2022/10/17 06:35:16;;;;;;;8.00;5.50;;;17.70;99.90;;;;;;5032234;28;20033;-64
2022/10/17 06:37:42;;;;;;;7.93;5.07;;;17.70;99.90;;;;;;5032379;28;20018;-64
2022/10/17 06:40:10;;;;;;;8.75;5.60;;;17.70;99.90;;;;;;5033314;28;20522;-64
2022/10/17 06:42:36;;;;;;;7.18;4.97;;;17.70;99.90;;;;;;5033651;28;20057;-64
2022/10/17 06:45:02;;;;;;;7.65;5.38;;;17.70;99.90;;;;;;5040514;28;20088;-64
2022/10/17 06:47:27;;;;;;;8.88;5.25;;;17.70;99.90;;;;;;5033000;28;20159;-64
2022/10/17 06:49:53;;;;;;;7.63;5.10;;;17.70;99.90;;;;;;5032109;28;20463;-65
2022/10/17 06:52:19;;;;;;;5.57;4.90;;;17.70;99.90;;;;;;5033215;28;20022;-64
2022/10/17 06:54:44;;;;;;;8.02;5.63;;;17.70;99.90;;;;;;5033119;28;20025;-64
2022/10/17 06:57:10;;;;;;;5.85;5.18;;;17.80;99.90;;;;;;5033309;28;20057;-65
2022/10/17 06:59:35;;;;;;;8.80;5.18;;;17.70;99.90;;;;;;5033520;28;20018;-65
2022/10/17 07:02:01;;;;;;;5.20;4.50;;;17.80;99.90;;;;;;5032695;28;20041;-62
2022/10/17 07:04:27;;;;;;;10.55;5.50;;;17.80;99.90;;;;;;5033475;28;20033;-65
2022/10/17 07:06:53;;;;;;;9.82;4.93;;;17.70;99.90;;;;;;5033447;28;20037;-64
2022/10/17 07:09:18;;;;;;;7.32;4.93;;;17.70;99.90;;;;;;5032232;28;20371;-63
2022/10/17 07:11:44;;;;;;;7.18;5.07;;;17.70;99.90;;;;;;5032519;28;20109;-62
2022/10/17 07:14:10;;;;;;;6.75;5.57;;;17.70;99.90;;;;;;5032731;28;20071;-63
2022/10/17 07:16:36;;;;;;;8.70;5.20;;;17.70;99.90;;;;;;5033140;28;20079;-64
2022/10/17 07:19:02;;;;;;;9.27;5.68;;;17.70;99.90;;;;;;5033131;28;20026;-61
2022/10/17 07:21:27;;;;;;;7.55;5.57;;;17.70;99.90;;;;;;5033022;28;20033;-63
2022/10/17 07:23:53;;;;;;;8.60;4.95;;;17.70;99.90;;;;;;5031501;28;20220;-62
2022/10/17 07:26:19;;;;;;;9.38;4.63;;;17.70;99.90;;;;;;5032800;28;20490;-61
2022/10/17 07:28:47;;;;;;;8.43;4.78;;;17.70;99.90;;;;;;5032796;28;20030;-60
2022/10/17 07:31:16;;;;;;;6.22;4.43;;;17.80;99.90;;;;;;5032968;28;20022;-62
2022/10/17 07:33:42;;;;;;;9.18;5.78;;;17.80;99.90;;;;;;5032913;28;20498;-63
2022/10/17 07:36:08;;;;;;;5.25;4.75;;;17.80;99.90;;;;;;5032979;28;20030;-64
2022/10/17 07:38:35;;;;;;;7.38;5.15;;;17.80;99.90;;;;;;5032618;28;20464;-65
2022/10/17 07:41:03;;;;;;;6.43;4.75;;;17.80;99.90;;;;;;5032715;28;20389;-62
2022/10/17 07:43:29;;;;;;;7.03;5.22;;;17.80;99.90;;;;;;5032555;28;20044;-62
2022/10/17 07:45:55;;;;;;;8.02;4.65;;;17.80;99.90;;;;;;5034061;28;20482;-64
2022/10/17 07:48:22;;;;;;;7.20;5.22;;;17.80;99.90;;;;;;5038820;28;20028;-64
2022/10/17 07:50:48;;;;;;;6.28;4.78;;;17.80;99.90;;;;;;5039111;28;20021;-64
2022/10/17 07:53:14;;;;;;;9.20;5.13;;;17.80;99.90;;;;;;5038571;28;20736;-60
2022/10/17 07:55:40;;;;;;;9.10;5.07;;;17.80;99.90;;;;;;5039090;28;20025;-63
2022/10/17 07:58:07;;;;;;;6.32;4.00;;;17.80;99.90;;;;;;5038836;28;20041;-63
2022/10/17 08:00:33;;;;;;;5.60;4.07;;;17.80;99.90;;;;;;5039096;28;20026;-64
2022/10/17 08:02:59;;;;;;;4.75;4.15;;;17.80;99.90;;;;;;5039842;28;20352;-63
2022/10/17 08:05:25;;;;;;;7.88;4.65;;;17.80;99.90;;;;;;5039233;28;20502;-64
2022/10/17 08:07:51;;;;;;;7.88;4.55;;;17.80;99.90;;;;;;5038824;28;20493;-63
2022/10/17 08:10:16;;;;;;;6.55;3.60;;;17.80;99.90;;;;;;5037205;28;20028;-64
2022/10/17 08:12:42;;;;;;;5.97;4.47;;;17.80;99.90;;;;;;5036668;28;20458;-66
2022/10/17 08:15:09;;;;;;;4.53;3.63;;;17.80;99.90;;;;;;5037938;28;20527;-65
2022/10/17 08:17:36;;;;;;;7.60;4.18;;;17.80;99.90;;;;;;5053871;28;20442;-62
2022/10/17 08:20:03;;;;;;;5.28;4.40;;;17.90;99.90;;;;;;5038420;28;20029;-63
2022/10/17 08:22:29;;;;;;;4.45;3.42;;;17.90;99.90;;;;;;5037694;28;20049;-63
2022/10/17 08:24:54;;;;;;;7.25;5.95;;;17.80;99.90;;;;;;5038433;28;20383;-62
2022/10/17 08:27:23;;;;;;;8.80;5.03;;;17.90;99.90;;;;;;5038389;28;20471;-66
2022/10/17 08:29:52;;;;;;;8.07;5.43;;;17.80;99.90;;;;;;5038281;28;20021;-60
2022/10/17 08:32:19;;;;;;;7.85;5.40;;;17.60;99.90;;;;;;5038430;28;20309;-65
2022/10/17 08:34:44;;;;;;;6.93;5.57;;;17.40;99.90;;;;;;5037570;28;20075;-66
2022/10/17 08:37:12;;;;;;;6.57;4.43;;;17.40;99.90;;;;;;5038763;28;20395;-66
2022/10/17 08:39:40;;;;;;;5.60;4.85;;;17.40;99.90;;;;;;5036957;28;20053;-66
2022/10/17 08:42:25;;;;;;;8.93;5.82;;;17.50;99.90;;;;;;5037311;28;20033;-65
2022/10/17 08:45:24;;;;;;;7.90;5.55;;;17.40;99.90;;;;;;5037728;28;20034;-65
2022/10/17 08:48:01;;;;;;;5.88;5.13;;;17.30;99.90;;;;;;5038236;28;20025;-66
2022/10/17 08:50:42;;;;;;;8.75;5.78;;;17.40;99.90;;;;;;5037799;28;20022;-65
2022/10/17 08:53:24;;;;;;;7.65;5.40;;;17.30;99.90;;;;;;5038291;28;20029;-66
2022/10/17 08:55:52;;;;;;;6.03;4.47;;;17.30;99.90;;;;;;5038311;28;20025;-66
2022/10/17 08:58:24;;;;;;;6.43;4.13;;;17.30;99.90;;;;;;5034569;28;20083;-66
2022/10/17 09:01:13;;;;;;;8.88;4.90;;;17.40;99.90;;;;;;5035276;28;20037;-69
2022/10/17 09:04:04;;;;;;;7.35;5.43;;;17.40;99.90;;;;;;5035668;28;20040;-65
2022/10/17 09:06:36;;;;;;;5.75;4.00;;;17.50;99.90;;;;;;5035397;28;20025;-65
2022/10/17 09:09:23;;;;;;;6.75;3.85;;;17.60;99.90;;;;;;5035055;28;20029;-65
2022/10/17 09:12:10;;;;;;;4.55;3.25;;;17.70;99.90;;;;;;5034115;28;20045;-65
2022/10/17 09:14:59;;;;;;;5.35;3.53;;;17.70;99.90;;;;;;5035145;28;20020;-65
2022/10/17 09:17:32;;;;;;;5.38;3.58;;;17.80;99.90;;;;;;5035384;28;20073;-62
2022/10/17 09:20:14;;;;;;;4.53;3.60;;;17.80;99.90;;;;;;5034761;28;20029;-64
2022/10/17 09:22:46;;;;;;;6.15;3.95;;;17.80;99.90;;;;;;5035372;28;20052;-62
2022/10/17 09:25:16;;;;;;;7.35;4.43;;;17.80;99.90;;;;;;5034569;28;20067;-65
2022/10/17 09:27:46;;;;;;;6.13;4.20;;;17.80;99.90;;;;;;5033471;28;20399;-67
2022/10/17 09:30:26;;;;;;;5.03;4.13;;;17.80;99.90;;;;;;5034732;28;20096;-66
2022/10/17 09:32:52;;;;;;;5.72;3.65;;;17.80;99.90;;;;;;5035575;28;20029;-66
2022/10/17 09:35:20;;;;;;;7.28;4.05;;;17.80;99.90;;;;;;5034760;28;20482;-63
2022/10/17 09:37:46;;;;;;;5.75;3.80;;;17.90;99.90;;;;;;5035538;28;20083;-62
2022/10/17 09:40:31;;;;;;;6.15;4.00;;;17.90;99.90;;;;;;5034366;28;20026;-66
2022/10/17 09:42:57;;;;;;;5.38;4.13;;;17.90;99.90;;;;;;5034977;28;20025;-66
2022/10/17 09:45:25;;;;;;;4.70;4.28;;;17.90;99.90;;;;;;5034777;28;20017;-66
2022/10/17 09:48:16;;;;;;;6.20;4.72;;;17.90;99.90;;;;;;5034715;28;20025;-66
2022/10/17 09:50:44;;;;;;;5.50;4.55;;;17.90;99.90;;;;;;5034533;28;20048;-67
2022/10/17 09:53:24;;;;;;;9.45;6.57;;;17.90;99.90;;;;;;5034867;28;20022;-65
2022/10/17 09:55:55;;;;;;;9.93;8.43;;;17.90;99.90;;;;;;5034464;28;20104;-67
2022/10/17 09:58:22;;;;;;;20.77;12.07;;;17.90;99.90;;;;;;5034823;28;20411;-63
2022/10/17 10:00:48;;;;;;;15.85;10.32;;;17.90;99.90;;;;;;5033840;28;20025;-65
2022/10/17 10:03:24;;;;;;;13.40;7.95;;;18.00;99.90;;;;;;5035970;28;20068;-63
2022/10/17 10:06:13;;;;;;;9.15;6.50;;;17.90;99.90;;;;;;5037051;28;20032;-62
2022/10/17 10:08:53;;;;;;;9.07;6.22;;;18.00;99.90;;;;;;5037429;28;20032;-68
2022/10/17 10:11:25;;;;;;;10.32;6.55;;;18.00;99.90;;;;;;5040200;28;20639;-67
2022/10/17 10:13:51;;;;;;;10.18;7.53;;;17.90;99.90;;;;;;5028303;28;20474;-72
2022/10/17 10:16:16;;;;;;;9.40;7.65;;;18.00;99.90;;;;;;5052690;28;20116;-73
2022/10/17 10:18:43;;;;;;;12.20;7.68;;;18.00;99.90;;;;;;5039068;28;20167;-69
2022/10/17 10:21:15;;;;;;;13.57;8.30;;;18.00;99.90;;;;;;5035316;28;20029;-68
2022/10/17 10:24:01;;;;;;;11.77;7.35;;;18.00;99.90;;;;;;5034899;28;20100;-66
2022/10/17 10:26:31;;;;;;;10.07;7.20;;;18.00;99.90;;;;;;5033397;28;20120;-62
2022/10/17 10:29:04;;;;;;;10.88;6.25;;;18.00;99.90;;;;;;5033320;28;20014;-62
2022/10/17 10:31:39;;;;;;;7.72;5.25;;;18.00;99.90;;;;;;5048211;28;20179;-65
2022/10/17 10:34:35;;;;;;;7.78;5.40;;;18.00;99.90;;;;;;5033237;28;20051;-65
2022/10/17 10:37:15;;;;;;;7.88;6.20;;;18.00;99.90;;;;;;5015567;28;20494;-66
2022/10/17 10:39:51;;;;;;;11.13;7.57;;;18.00;99.90;;;;;;5033048;28;20032;-65
2022/10/17 10:42:22;;;;;;;8.00;5.65;;;18.00;99.90;;;;;;5033457;28;20045;-67
2022/10/17 10:44:49;;;;;;;10.23;5.82;;;18.00;99.90;;;;;;5032755;28;20448;-67
2022/10/17 10:47:19;;;;;;;7.72;5.13;;;18.00;99.90;;;;;;5032313;28;20502;-66
2022/10/17 10:49:45;;;;;;;9.25;5.78;;;18.00;99.90;;;;;;5033088;28;20033;-64
2022/10/17 10:52:45;;;;;;;6.80;5.70;;;18.00;99.90;;;;;;5048354;28;20429;-65
2022/10/17 10:55:15;;;;;;;6.25;5.65;;;18.10;99.90;;;;;;5033307;28;20033;-65
2022/10/17 10:57:44;;;;;;;6.93;5.78;;;18.10;99.90;;;;;;5033238;28;20129;-66
2022/10/17 11:00:18;;;;;;;6.97;5.72;;;18.00;99.90;;;;;;5033153;28;20044;-65
2022/10/17 11:02:46;;;;;;;8.63;6.10;;;18.10;99.90;;;;;;5033268;28;20025;-64
2022/10/17 11:05:25;;;;;;;7.20;4.82;;;18.10;99.90;;;;;;5033332;28;20116;-66
2022/10/17 11:08:24;;;;;;;5.82;4.13;;;18.10;99.90;;;;;;5033181;28;20026;-67
2022/10/17 11:11:22;;;;;;;6.90;5.03;;;18.10;99.90;;;;;;5033352;28;20699;-63
2022/10/17 11:13:57;;;;;;;6.75;5.85;;;18.20;99.90;;;;;;5033126;28;20025;-65
2022/10/17 11:16:38;;;;;;;8.23;4.25;;;18.20;99.90;;;;;;5032654;28;20026;-65
2022/10/17 11:19:15;;;;;;;7.70;5.07;;;18.20;99.90;;;;;;5033189;28;20076;-62
2022/10/17 11:21:58;;;;;;;13.00;5.32;;;18.20;99.90;;;;;;5032223;28;20120;-63
2022/10/17 11:24:29;;;;;;;6.63;4.88;;;18.20;99.90;;;;;;5033073;28;20065;-65
2022/10/17 11:26:59;;;;;;;7.93;4.80;;;18.20;99.90;;;;;;5032824;28;20223;-66
2022/10/17 11:29:31;;;;;;;8.55;6.20;;;18.30;99.90;;;;;;5032034;28;20489;-66
2022/10/17 11:32:32;;;;;;;6.05;4.88;;;18.20;99.90;;;;;;5032282;28;20079;-64
2022/10/17 11:35:21;;;;;;;7.00;5.35;;;18.30;99.90;;;;;;5020712;28;20069;-66
2022/10/17 11:38:18;;;;;;;7.78;5.45;;;18.30;99.90;;;;;;5035628;28;20051;-64
2022/10/17 11:40:49;;;;;;;8.70;5.22;;;18.30;99.90;;;;;;5032838;28;20057;-62
2022/10/17 11:43:32;;;;;;;7.40;5.00;;;18.30;99.90;;;;;;5033021;28;20107;-65
2022/10/17 11:46:04;;;;;;;6.00;4.68;;;18.30;99.90;;;;;;5032911;28;20029;-64
2022/10/17 11:48:46;;;;;;;7.57;5.18;;;18.30;99.90;;;;;;5032853;28;20037;-66
2022/10/17 11:51:13;;;;;;;7.50;4.93;;;18.40;99.90;;;;;;5031412;28;20056;-65
2022/10/17 11:53:54;;;;;;;6.85;5.63;;;18.40;99.90;;;;;;5032734;28;20030;-62
2022/10/17 11:56:36;;;;;;;6.45;5.25;;;18.40;99.90;;;;;;5047258;28;20025;-62
2022/10/17 11:59:22;;;;;;;8.88;4.95;;;18.40;99.90;;;;;;5032367;28;20148;-63
2022/10/17 12:01:55;;;;;;;7.63;5.03;;;18.40;99.90;;;;;;5032487;28;20375;-62
2022/10/17 12:04:42;;;;;;;6.30;4.85;;;18.40;99.90;;;;;;5032609;28;20442;-62
2022/10/17 12:07:08;;;;;;;9.30;5.50;;;18.40;99.90;;;;;;5032650;28;20056;-65
2022/10/17 12:09:47;;;;;;;5.18;4.53;;;18.40;99.90;;;;;;5032720;28;20029;-62
2022/10/17 12:12:25;;;;;;;7.50;4.68;;;18.40;99.90;;;;;;5032664;28;20026;-64
2022/10/17 12:14:51;;;;;;;8.38;4.60;;;18.40;99.90;;;;;;5032542;28;20033;-66
2022/10/17 12:17:54;;;;;;;9.65;5.60;;;18.40;99.90;;;;;;5032630;28;20494;-64
2022/10/17 12:20:19;;;;;;;6.30;4.63;;;18.40;99.90;;;;;;5010646;28;20144;-66
2022/10/17 12:22:58;;;;;;;8.13;5.00;;;18.50;99.90;;;;;;5032363;28;20175;-66
2022/10/17 12:25:30;;;;;;;7.93;5.55;;;18.50;99.90;;;;;;5032521;28;20037;-65
2022/10/17 12:28:16;;;;;;;;;;;18.50;99.90;;;;;;5032368;28;20104;-66
2022/10/17 12:30:54;;;;;;;8.68;4.95;;;18.50;99.90;;;;;;5032034;28;19911;-66
2022/10/17 12:33:21;;;;;;;5.13;4.55;;;18.50;99.90;;;;;;5034553;28;20415;-66
2022/10/17 12:35:49;;;;;;;7.25;5.30;;;18.50;99.90;;;;;;5036070;28;20094;-66
2022/10/17 12:38:25;;;;;;;6.93;5.38;;;18.50;99.90;;;;;;5036059;28;20482;-65
2022/10/17 12:40:54;;;;;;;6.47;5.50;;;18.50;99.90;;;;;;5036046;28;20033;-66
2022/10/17 12:43:28;;;;;;;8.43;5.38;;;18.50;99.90;;;;;;5035609;28;20463;-66
2022/10/17 12:45:56;;;;;;;6.80;5.32;;;18.50;99.90;;;;;;5035941;28;20025;-66
2022/10/17 12:48:33;;;;;;;7.28;5.38;;;18.60;99.90;;;;;;5035939;28;20510;-67
2022/10/17 12:51:20;;;;;;;13.57;8.35;;;18.60;99.90;;;;;;5035872;28;20109;-65
2022/10/17 12:53:48;;;;;;;8.45;6.85;;;18.60;99.90;;;;;;5035720;28;20033;-66
2022/10/17 12:56:19;;;;;;;8.57;5.55;;;18.60;99.90;;;;;;5035509;28;20049;-66
2022/10/17 12:58:50;;;;;;;7.38;5.90;;;18.60;99.90;;;;;;5035533;28;20406;-64
2022/10/17 13:01:29;;;;;;;7.95;5.65;;;18.60;99.90;;;;;;5035948;28;20030;-65
2022/10/17 13:03:56;;;;;;;11.18;5.85;;;18.60;99.90;;;;;;5035657;28;20056;-63
2022/10/17 13:06:26;;;;;;;10.38;5.40;;;18.60;99.90;;;;;;5035604;28;20025;-64